createdAt,value
2022-10-24T03:19:52.766Z,98197.63
2022-10-24T03:23:03.473Z,98207.94
2022-10-24T03:26:14.318Z,98216.66
2022-10-24T03:29:24.914Z,98223.56
2022-10-24T03:32:35.582Z,98228.88
2022-10-24T03:35:47.406Z,98225.16
2022-10-24T03:38:57.982Z,98221.28
2022-10-24T03:42:08.692Z,98224.13
2022-10-24T03:45:19.469Z,98221.81
2022-10-24T03:48:30.095Z,98224.63
2022-10-24T03:51:42.234Z,98220.53
2022-10-24T03:54:53.020Z,98221.63
2022-10-24T03:58:03.509Z,98213.75
2022-10-24T04:01:18.265Z,98201.69
2022-10-24T04:04:28.915Z,98199.13
2022-10-24T04:07:40.642Z,98202.56
2022-10-24T04:10:51.161Z,98209.72
2022-10-24T04:17:13.535Z,98218.03
2022-10-24T04:20:24.517Z,98211.09
2022-10-24T04:23:41.120Z,98213.78
2022-10-24T04:26:51.542Z,98211.81
2022-10-24T04:30:02.072Z,98204.50
2022-10-24T04:33:12.690Z,98209.03
2022-10-24T04:36:23.331Z,98202.91
2022-10-24T04:39:35.103Z,98192.66
2022-10-24T04:42:46.069Z,98198.88
2022-10-24T04:45:56.919Z,98198.88
2022-10-24T04:49:08.124Z,98199.31
2022-10-24T04:52:18.583Z,98205.41
2022-10-24T04:55:30.958Z,98204.72
2022-10-24T04:58:41.370Z,98205.41
2022-10-24T06:02:22.231Z,98256.09
2022-10-24T06:05:32.821Z,98262.00
2022-10-24T06:08:43.250Z,98266.69
2022-10-24T06:11:53.551Z,98267.47
2022-10-24T06:15:05.876Z,98266.19
2022-10-24T06:18:19.863Z,98271.41
2022-10-24T06:21:30.019Z,98267.94
2022-10-24T06:24:39.764Z,98275.06
2022-10-24T06:27:49.529Z,98261.56
2022-10-24T06:31:03.170Z,98262.00
2022-10-24T06:34:14.175Z,98252.63
2022-10-24T06:37:24.029Z,98257.72
2022-10-24T06:44:11.817Z,98257.28
2022-10-24T06:47:22.576Z,98256.47
2022-10-24T06:50:34.329Z,98256.38
2022-10-24T06:53:45.417Z,98260.66
2022-10-24T06:56:55.925Z,98255.59
2022-10-24T07:00:07.136Z,98274.56
2022-10-24T07:03:17.853Z,98274.69
2022-10-24T07:06:31.229Z,98265.50
2022-10-24T07:09:41.954Z,98267.59
2022-10-24T07:12:52.711Z,98279.41
2022-10-24T07:16:03.541Z,98283.91
2022-10-24T07:19:14.218Z,98282.44
2022-10-24T07:22:27.433Z,98291.31
2022-10-24T07:25:40.471Z,98294.88
2022-10-24T07:28:53.809Z,98306.09
2022-10-24T07:32:04.993Z,98320.28
2022-10-24T07:35:15.783Z,98312.75
2022-10-24T07:38:28.539Z,98311.75
2022-10-24T07:41:41.803Z,98317.09
2022-10-24T07:44:53.248Z,98317.38
2022-10-24T07:48:05.817Z,98316.81
2022-10-24T07:51:17.367Z,98304.75
2022-10-24T07:54:32.974Z,98311.19
2022-10-24T07:57:47.812Z,98293.78
2022-10-24T08:01:05.605Z,98293.72
2022-10-24T08:04:16.693Z,98290.66
2022-10-24T08:07:27.309Z,98294.63
2022-10-24T08:10:39.896Z,98284.19
2022-10-24T08:13:50.953Z,98289.41
2022-10-24T08:17:01.573Z,98285.66
2022-10-24T08:20:13.099Z,98275.19
2022-10-24T08:23:25.527Z,98274.81
2022-10-24T08:26:40.595Z,98277.34
2022-10-24T08:29:51.138Z,98273.94
2022-10-24T08:33:02.019Z,98261.53
2022-10-24T08:36:20.738Z,98264.22
2022-10-24T08:39:31.234Z,98270.38
2022-10-24T08:42:43.403Z,98265.63
2022-10-24T08:46:05.385Z,98268.34
2022-10-24T08:49:24.884Z,98271.28
2022-10-24T08:52:41.724Z,98262.00
2022-10-24T08:55:54.671Z,98269.31
2022-10-24T08:59:07.775Z,98257.56
2022-10-24T09:02:22.648Z,98253.00
2022-10-24T09:05:41.718Z,98258.22
2022-10-24T09:08:54.631Z,98240.94
2022-10-24T09:12:10.154Z,98246.31
2022-10-24T09:15:27.262Z,98247.22
2022-10-24T09:18:41.829Z,98241.16
2022-10-24T09:21:53.868Z,98252.34
2022-10-24T09:25:09.054Z,98257.72
2022-10-24T09:28:20.427Z,98266.09
2022-10-24T09:31:32.383Z,98267.84
2022-10-24T09:34:43.292Z,98265.16
2022-10-24T09:37:56.133Z,98267.16
2022-10-24T09:41:09.208Z,98271.41
2022-10-24T09:44:33.140Z,98271.63
2022-10-24T09:47:45.185Z,98281.16
2022-10-24T09:50:57.052Z,98285.19
2022-10-24T09:54:26.422Z,98291.72
2022-10-24T09:57:40.925Z,98286.63
2022-10-24T10:00:59.831Z,98280.03
2022-10-24T10:04:17.896Z,98299.19
2022-10-24T10:07:30.773Z,98282.84
2022-10-24T10:10:42.210Z,98297.59
2022-10-24T10:22:52.799Z,98294.88
2022-10-24T10:26:13.128Z,98305.47
2022-10-24T10:29:25.705Z,98309.63
2022-10-24T10:32:44.009Z,98309.31
2022-10-24T10:36:01.531Z,98303.66
2022-10-24T10:39:25.795Z,98310.16
2022-10-24T10:42:43.954Z,98316.53
2022-10-24T10:46:07.855Z,98318.66
2022-10-24T10:49:25.695Z,98310.50
2022-10-24T10:52:48.864Z,98322.13
2022-10-24T10:56:09.877Z,98329.22
2022-10-24T10:59:36.022Z,98342.53
2022-10-24T11:03:03.878Z,98331.09
2022-10-24T11:06:30.980Z,98337.84
2022-10-24T11:09:47.061Z,98332.63
2022-10-24T11:13:02.302Z,98329.19
2022-10-24T11:16:19.131Z,98347.16
2022-10-24T11:19:36.588Z,98331.63
2022-10-24T11:22:52.336Z,98349.47
2022-10-24T11:26:07.301Z,98333.84
2022-10-24T11:29:25.871Z,98332.69
2022-10-24T11:32:42.418Z,98314.69
2022-10-24T11:36:03.121Z,98316.78
2022-10-24T11:39:20.190Z,98320.19
2022-10-24T11:42:39.081Z,98331.13
2022-10-24T11:45:57.754Z,98320.50
2022-10-24T11:49:18.068Z,98312.09
2022-10-24T11:52:33.415Z,98313.84
2022-10-24T11:55:49.692Z,98301.75
2022-10-24T11:59:03.399Z,98309.31
2022-10-24T12:02:46.108Z,98316.81
2022-10-24T12:06:11.630Z,98318.59
2022-10-24T12:09:37.479Z,98315.81
2022-10-24T12:13:07.304Z,98323.94
2022-10-24T12:16:31.597Z,98332.41
2022-10-24T12:19:46.150Z,98318.28
2022-10-24T12:22:58.937Z,98326.44
2022-10-24T12:26:20.457Z,98314.44
2022-10-24T12:29:33.873Z,98313.41
2022-10-24T12:32:48.444Z,98300.53
2022-10-24T12:36:01.179Z,98302.38
2022-10-24T12:39:12.307Z,98301.50
2022-10-24T12:43:06.506Z,98296.09
2022-10-24T12:46:40.970Z,98299.56
2022-10-24T12:49:52.154Z,98293.50
2022-10-24T12:53:07.481Z,98300.16
2022-10-24T12:56:20.937Z,98308.72
2022-10-24T12:59:34.279Z,98302.88
2022-10-24T13:03:00.991Z,98307.97
2022-10-24T13:06:24.439Z,98305.28
2022-10-24T13:09:47.132Z,98293.63
2022-10-24T13:13:14.903Z,98295.97
2022-10-24T13:16:33.696Z,98299.56
2022-10-24T13:19:44.915Z,98307.22
2022-10-24T13:23:03.391Z,98300.88
2022-10-24T13:26:37.558Z,98308.19
2022-10-24T13:30:01.665Z,98303.03
2022-10-24T13:33:33.964Z,98297.16
2022-10-24T13:36:46.715Z,98300.53
2022-10-24T13:40:02.758Z,98301.53
2022-10-24T13:43:20.744Z,98305.53
2022-10-24T13:46:42.058Z,98305.47
2022-10-24T13:49:57.313Z,98315.16
2022-10-24T13:53:21.034Z,98307.72
2022-10-24T13:56:41.230Z,98318.38
2022-10-24T13:59:58.325Z,98326.09
2022-10-24T14:03:15.606Z,98323.38
2022-10-24T14:06:28.091Z,98331.69
2022-10-24T14:09:42.707Z,98328.56
2022-10-24T14:12:57.292Z,98324.13
2022-10-24T14:16:09.731Z,98344.25
2022-10-24T14:19:28.415Z,98335.50
2022-10-24T14:22:43.097Z,98345.06
2022-10-24T14:25:57.335Z,98335.06
2022-10-24T14:29:22.433Z,98346.88
2022-10-24T14:32:34.799Z,98351.69
2022-10-24T14:35:46.192Z,98351.81
2022-10-24T14:38:59.381Z,98351.81
2022-10-24T14:42:16.188Z,98349.88
2022-10-24T14:45:28.732Z,98360.22
2022-10-24T14:48:43.216Z,98363.00
2022-10-24T14:51:56.070Z,98361.34
2022-10-24T14:55:17.884Z,98366.22
2022-10-24T14:58:31.114Z,98372.38
2022-10-24T15:01:41.935Z,98369.34
2022-10-24T15:05:13.653Z,98364.13
2022-10-24T15:08:35.321Z,98371.13
2022-10-24T15:11:47.945Z,98375.34
2022-10-24T15:15:21.558Z,98372.09
2022-10-24T15:18:36.934Z,98380.47
2022-10-24T15:21:50.325Z,98380.41
2022-10-24T15:25:03.766Z,98381.97
2022-10-24T15:28:37.845Z,98388.63
2022-10-24T15:31:50.691Z,98393.50
2022-10-24T15:35:01.561Z,98393.38
2022-10-24T15:38:17.171Z,98383.47
2022-10-24T15:41:28.596Z,98385.00
2022-10-24T15:44:40.887Z,98392.47
2022-10-24T15:47:53.102Z,98394.13
2022-10-24T15:51:05.223Z,98397.31
2022-10-24T15:54:19.424Z,98397.91
2022-10-24T15:57:30.588Z,98397.44
2022-10-24T16:00:42.476Z,98406.41
2022-10-24T16:03:53.640Z,98397.31
2022-10-24T16:07:05.305Z,98405.78
2022-10-24T16:10:19.952Z,98404.06
2022-10-24T16:13:32.448Z,98409.91
2022-10-24T16:16:46.411Z,98409.63
2022-10-24T16:19:59.392Z,98417.13
2022-10-24T16:23:12.715Z,98427.72
2022-10-24T16:26:27.594Z,98429.91
2022-10-24T16:29:39.986Z,98432.66
2022-10-24T16:32:54.427Z,98442.56
2022-10-24T16:36:07.381Z,98443.09
2022-10-24T16:39:20.666Z,98444.25
2022-10-24T16:42:35.823Z,98450.63
2022-10-24T16:45:58.346Z,98450.75
2022-10-24T16:49:12.296Z,98450.66
2022-10-24T16:52:26.319Z,98454.09
2022-10-24T16:55:40.547Z,98452.75
2022-10-24T16:58:57.471Z,98447.75
2022-10-24T17:02:13.932Z,98456.59
2022-10-24T17:05:31.586Z,98462.94
2022-10-24T17:08:47.105Z,98457.16
2022-10-24T17:12:03.052Z,98451.88
2022-10-24T17:15:22.432Z,98459.50
2022-10-24T17:18:40.193Z,98458.66
2022-10-24T17:21:56.477Z,98458.63
2022-10-24T17:25:21.397Z,98461.72
2022-10-24T17:28:37.359Z,98453.63
2022-10-24T17:31:54.916Z,98473.72
2022-10-24T17:35:11.313Z,98471.06
2022-10-24T17:38:40.420Z,98474.53
2022-10-24T17:41:57.195Z,98477.34
2022-10-24T17:45:18.482Z,98477.19
2022-10-24T17:48:38.100Z,98493.56
2022-10-24T17:51:54.204Z,98491.63
2022-10-24T17:55:22.244Z,98496.47
2022-10-24T17:58:45.457Z,98498.44
2022-10-24T18:02:02.592Z,98490.94
2022-10-24T18:05:22.903Z,98495.25
2022-10-24T18:08:40.906Z,98503.59
2022-10-24T18:11:59.366Z,98508.63
2022-10-24T18:15:17.158Z,98509.53
2022-10-24T18:18:34.381Z,98514.88
2022-10-24T18:21:52.996Z,98508.09
2022-10-24T18:25:09.167Z,98520.22
2022-10-24T18:28:29.250Z,98525.56
2022-10-24T18:31:45.441Z,98525.72
2022-10-24T18:35:01.332Z,98523.94
2022-10-24T18:38:21.675Z,98524.75
2022-10-24T18:41:47.534Z,98529.63
2022-10-24T18:45:03.559Z,98528.22
2022-10-24T18:48:20.145Z,98518.97
2022-10-24T18:51:39.973Z,98523.63
2022-10-24T18:55:05.267Z,98530.19
2022-10-24T18:58:24.642Z,98529.06
2022-10-24T19:01:50.629Z,98537.34
2022-10-24T19:05:21.091Z,98542.13
2022-10-24T19:08:38.132Z,98535.09
2022-10-24T19:11:56.564Z,98540.88
2022-10-24T19:15:12.953Z,98551.81
2022-10-24T19:18:31.876Z,98556.63
2022-10-24T19:21:49.839Z,98552.94
2022-10-24T19:25:07.399Z,98563.97
2022-10-24T19:28:27.903Z,98549.72
2022-10-24T19:31:48.889Z,98554.31
2022-10-24T19:35:06.944Z,98553.13
2022-10-24T19:38:23.186Z,98554.31
2022-10-24T19:41:39.357Z,98553.94
2022-10-24T19:44:59.061Z,98553.72
2022-10-24T19:48:15.907Z,98554.78
2022-10-24T19:51:32.566Z,98556.78
2022-10-24T19:54:49.103Z,98553.81
2022-10-24T19:58:04.665Z,98548.09
2022-10-24T20:01:23.213Z,98555.72
2022-10-24T20:04:42.641Z,98558.41
2022-10-24T20:07:59.717Z,98559.97
2022-10-24T20:11:16.637Z,98557.41
2022-10-24T20:14:32.162Z,98556.41
